sensor_id;sensor_type;location;lat;lon;timestamp;P1;durP1;ratioP1;P2;durP2;ratioP2
28627;SDS011;15815;46.760;19.604;2023-02-19T00:01:29;77.47;;;47.60;;
28627;SDS011;15815;46.760;19.604;2023-02-19T00:03:58;73.93;;;45.28;;
28627;SDS011;15815;46.760;19.604;2023-02-19T00:06:29;76.25;;;45.97;;
28627;SDS011;15815;46.760;19.604;2023-02-19T00:08:59;78.53;;;50.08;;
28627;SDS011;15815;46.760;19.604;2023-02-19T00:11:27;94.28;;;53.47;;
28627;SDS011;15815;46.760;19.604;2023-02-19T00:13:55;79.05;;;46.50;;
28627;SDS011;15815;46.760;19.604;2023-02-19T00:18:55;65.35;;;43.75;;
28627;SDS011;15815;46.760;19.604;2023-02-19T00:21:22;74.57;;;43.85;;
28627;SDS011;15815;46.760;19.604;2023-02-19T00:23:51;76.05;;;44.42;;
28627;SDS011;15815;46.760;19.604;2023-02-19T00:26:23;70.82;;;44.35;;
28627;SDS011;15815;46.760;19.604;2023-02-19T00:28:49;71.93;;;44.70;;
28627;SDS011;15815;46.760;19.604;2023-02-19T00:33:47;65.60;;;40.97;;
28627;SDS011;15815;46.760;19.604;2023-02-19T00:36:14;71.35;;;44.03;;
28627;SDS011;15815;46.760;19.604;2023-02-19T00:38:40;71.85;;;42.00;;
28627;SDS011;15815;46.760;19.604;2023-02-19T00:41:07;71.07;;;41.80;;
28627;SDS011;15815;46.760;19.604;2023-02-19T00:43:37;66.88;;;41.67;;
28627;SDS011;15815;46.760;19.604;2023-02-19T00:46:02;68.35;;;42.33;;
28627;SDS011;15815;46.760;19.604;2023-02-19T00:48:28;71.05;;;41.72;;
28627;SDS011;15815;46.760;19.604;2023-02-19T00:50:54;67.47;;;38.80;;
28627;SDS011;15815;46.760;19.604;2023-02-19T00:53:20;67.90;;;42.25;;
28627;SDS011;15815;46.760;19.604;2023-02-19T00:55:46;66.75;;;42.63;;
28627;SDS011;15815;46.760;19.604;2023-02-19T00:58:11;71.05;;;41.08;;
28627;SDS011;15815;46.760;19.604;2023-02-19T01:00:37;68.13;;;41.60;;
28627;SDS011;15815;46.760;19.604;2023-02-19T01:03:03;68.88;;;41.80;;
28627;SDS011;15815;46.760;19.604;2023-02-19T01:05:28;65.97;;;41.53;;
28627;SDS011;15815;46.760;19.604;2023-02-19T01:07:53;68.75;;;42.33;;
28627;SDS011;15815;46.760;19.604;2023-02-19T01:10:19;64.65;;;41.63;;
28627;SDS011;15815;46.760;19.604;2023-02-19T01:12:45;64.43;;;41.70;;
28627;SDS011;15815;46.760;19.604;2023-02-19T01:15:10;65.63;;;41.80;;
28627;SDS011;15815;46.760;19.604;2023-02-19T01:17:36;62.92;;;40.45;;
28627;SDS011;15815;46.760;19.604;2023-02-19T01:20:01;64.32;;;39.88;;
28627;SDS011;15815;46.760;19.604;2023-02-19T01:22:27;66.97;;;40.58;;
28627;SDS011;15815;46.760;19.604;2023-02-19T01:24:52;67.63;;;42.38;;
28627;SDS011;15815;46.760;19.604;2023-02-19T01:27:18;67.78;;;41.65;;
28627;SDS011;15815;46.760;19.604;2023-02-19T01:29:43;68.07;;;41.90;;
28627;SDS011;15815;46.760;19.604;2023-02-19T01:32:09;63.00;;;40.53;;
28627;SDS011;15815;46.760;19.604;2023-02-19T01:34:34;65.82;;;41.47;;
28627;SDS011;15815;46.760;19.604;2023-02-19T01:37:01;68.63;;;40.47;;
28627;SDS011;15815;46.760;19.604;2023-02-19T01:39:26;68.25;;;40.13;;
28627;SDS011;15815;46.760;19.604;2023-02-19T01:41:52;67.30;;;42.72;;
28627;SDS011;15815;46.760;19.604;2023-02-19T01:46:46;69.88;;;41.72;;
28627;SDS011;15815;46.760;19.604;2023-02-19T01:51:40;69.45;;;41.35;;
28627;SDS011;15815;46.760;19.604;2023-02-19T01:54:18;63.97;;;41.28;;
28627;SDS011;15815;46.760;19.604;2023-02-19T01:56:49;67.50;;;40.40;;
28627;SDS011;15815;46.760;19.604;2023-02-19T01:59:15;65.72;;;39.40;;
28627;SDS011;15815;46.760;19.604;2023-02-19T02:01:43;70.10;;;40.42;;
28627;SDS011;15815;46.760;19.604;2023-02-19T02:04:12;75.45;;;42.72;;
28627;SDS011;15815;46.760;19.604;2023-02-19T02:06:43;71.00;;;41.13;;
28627;SDS011;15815;46.760;19.604;2023-02-19T02:09:13;65.03;;;41.22;;
28627;SDS011;15815;46.760;19.604;2023-02-19T02:11:46;64.68;;;38.53;;
28627;SDS011;15815;46.760;19.604;2023-02-19T02:14:14;63.53;;;39.15;;
28627;SDS011;15815;46.760;19.604;2023-02-19T02:16:54;64.57;;;38.85;;
28627;SDS011;15815;46.760;19.604;2023-02-19T02:30:49;61.97;;;38.75;;
28627;SDS011;15815;46.760;19.604;2023-02-19T02:36:30;60.83;;;37.72;;
28627;SDS011;15815;46.760;19.604;2023-02-19T02:39:04;56.40;;;37.58;;
28627;SDS011;15815;46.760;19.604;2023-02-19T02:41:40;62.85;;;38.13;;
28627;SDS011;15815;46.760;19.604;2023-02-19T02:44:14;61.13;;;38.33;;
28627;SDS011;15815;46.760;19.604;2023-02-19T02:46:40;59.20;;;36.35;;
28627;SDS011;15815;46.760;19.604;2023-02-19T02:49:16;55.65;;;36.05;;
28627;SDS011;15815;46.760;19.604;2023-02-19T02:51:50;62.88;;;36.58;;
28627;SDS011;15815;46.760;19.604;2023-02-19T02:54:30;56.90;;;35.90;;
28627;SDS011;15815;46.760;19.604;2023-02-19T02:57:02;58.55;;;36.17;;
28627;SDS011;15815;46.760;19.604;2023-02-19T02:59:30;54.53;;;36.67;;
28627;SDS011;15815;46.760;19.604;2023-02-19T03:04:32;56.22;;;36.50;;
28627;SDS011;15815;46.760;19.604;2023-02-19T03:07:04;56.97;;;36.95;;
28627;SDS011;15815;46.760;19.604;2023-02-19T03:09:35;61.13;;;37.13;;
28627;SDS011;15815;46.760;19.604;2023-02-19T03:14:42;56.53;;;34.25;;
28627;SDS011;15815;46.760;19.604;2023-02-19T03:17:14;60.63;;;35.72;;
28627;SDS011;15815;46.760;19.604;2023-02-19T03:19:47;58.45;;;37.15;;
28627;SDS011;15815;46.760;19.604;2023-02-19T03:22:18;58.42;;;38.13;;
28627;SDS011;15815;46.760;19.604;2023-02-19T03:24:51;55.38;;;35.75;;
28627;SDS011;15815;46.760;19.604;2023-02-19T03:27:29;55.97;;;36.65;;
28627;SDS011;15815;46.760;19.604;2023-02-19T03:30:00;63.38;;;36.67;;
28627;SDS011;15815;46.760;19.604;2023-02-19T03:32:30;58.58;;;36.72;;
28627;SDS011;15815;46.760;19.604;2023-02-19T03:35:05;59.70;;;38.10;;
28627;SDS011;15815;46.760;19.604;2023-02-19T03:40:43;53.92;;;37.88;;
28627;SDS011;15815;46.760;19.604;2023-02-19T03:43:23;56.97;;;38.00;;
28627;SDS011;15815;46.760;19.604;2023-02-19T03:46:08;64.32;;;38.13;;
28627;SDS011;15815;46.760;19.604;2023-02-19T03:56:35;58.70;;;38.08;;
28627;SDS011;15815;46.760;19.604;2023-02-19T03:59:12;63.20;;;39.42;;
28627;SDS011;15815;46.760;19.604;2023-02-19T04:01:51;59.60;;;40.00;;
28627;SDS011;15815;46.760;19.604;2023-02-19T04:04:31;64.78;;;42.03;;
28627;SDS011;15815;46.760;19.604;2023-02-19T04:07:02;61.85;;;39.53;;
28627;SDS011;15815;46.760;19.604;2023-02-19T04:09:38;63.72;;;39.92;;
28627;SDS011;15815;46.760;19.604;2023-02-19T04:12:07;72.47;;;40.10;;
28627;SDS011;15815;46.760;19.604;2023-02-19T04:14:37;63.58;;;41.10;;
28627;SDS011;15815;46.760;19.604;2023-02-19T04:17:10;59.95;;;39.70;;
28627;SDS011;15815;46.760;19.604;2023-02-19T04:19:43;60.03;;;41.22;;
28627;SDS011;15815;46.760;19.604;2023-02-19T04:22:12;61.78;;;39.15;;
28627;SDS011;15815;46.760;19.604;2023-02-19T04:24:42;62.10;;;39.38;;
28627;SDS011;15815;46.760;19.604;2023-02-19T04:27:12;61.97;;;41.28;;
28627;SDS011;15815;46.760;19.604;2023-02-19T04:29:38;60.80;;;39.97;;
28627;SDS011;15815;46.760;19.604;2023-02-19T04:32:04;59.92;;;40.28;;
28627;SDS011;15815;46.760;19.604;2023-02-19T04:34:30;64.78;;;39.78;;
28627;SDS011;15815;46.760;19.604;2023-02-19T04:36:56;65.45;;;40.47;;
28627;SDS011;15815;46.760;19.604;2023-02-19T04:39:24;61.80;;;39.03;;
28627;SDS011;15815;46.760;19.604;2023-02-19T04:44:15;63.37;;;38.47;;
28627;SDS011;15815;46.760;19.604;2023-02-19T04:46:40;58.85;;;38.70;;
28627;SDS011;15815;46.760;19.604;2023-02-19T04:49:06;63.42;;;38.88;;
28627;SDS011;15815;46.760;19.604;2023-02-19T04:51:32;53.70;;;35.15;;
28627;SDS011;15815;46.760;19.604;2023-02-19T04:53:57;55.88;;;36.25;;
28627;SDS011;15815;46.760;19.604;2023-02-19T04:56:23;62.20;;;37.83;;
28627;SDS011;15815;46.760;19.604;2023-02-19T04:58:48;55.97;;;37.03;;
28627;SDS011;15815;46.760;19.604;2023-02-19T05:01:14;55.55;;;36.55;;
28627;SDS011;15815;46.760;19.604;2023-02-19T05:03:39;57.65;;;36.80;;
28627;SDS011;15815;46.760;19.604;2023-02-19T05:06:07;59.90;;;34.67;;
28627;SDS011;15815;46.760;19.604;2023-02-19T05:08:34;51.25;;;35.40;;
28627;SDS011;15815;46.760;19.604;2023-02-19T05:11:04;53.65;;;35.97;;
28627;SDS011;15815;46.760;19.604;2023-02-19T05:13:32;50.67;;;34.40;;
28627;SDS011;15815;46.760;19.604;2023-02-19T05:16:03;56.13;;;34.30;;
28627;SDS011;15815;46.760;19.604;2023-02-19T05:18:35;55.42;;;35.70;;
28627;SDS011;15815;46.760;19.604;2023-02-19T05:21:01;49.92;;;33.15;;
28627;SDS011;15815;46.760;19.604;2023-02-19T05:23:27;56.50;;;36.95;;
28627;SDS011;15815;46.760;19.604;2023-02-19T05:25:53;61.72;;;39.22;;
28627;SDS011;15815;46.760;19.604;2023-02-19T05:28:18;57.83;;;36.35;;
28627;SDS011;15815;46.760;19.604;2023-02-19T05:30:48;58.85;;;37.88;;
28627;SDS011;15815;46.760;19.604;2023-02-19T05:33:15;65.03;;;35.88;;
28627;SDS011;15815;46.760;19.604;2023-02-19T05:35:43;47.20;;;31.60;;
28627;SDS011;15815;46.760;19.604;2023-02-19T05:38:13;48.72;;;32.63;;
28627;SDS011;15815;46.760;19.604;2023-02-19T05:40:40;48.42;;;32.03;;
28627;SDS011;15815;46.760;19.604;2023-02-19T05:43:05;50.97;;;31.85;;
28627;SDS011;15815;46.760;19.604;2023-02-19T05:45:33;49.00;;;31.23;;
28627;SDS011;15815;46.760;19.604;2023-02-19T05:47:59;49.63;;;32.90;;
28627;SDS011;15815;46.760;19.604;2023-02-19T05:50:25;48.33;;;32.47;;
28627;SDS011;15815;46.760;19.604;2023-02-19T05:52:54;47.17;;;31.67;;
28627;SDS011;15815;46.760;19.604;2023-02-19T05:55:19;44.10;;;29.77;;
28627;SDS011;15815;46.760;19.604;2023-02-19T05:57:45;43.40;;;30.50;;
28627;SDS011;15815;46.760;19.604;2023-02-19T06:00:16;42.53;;;29.80;;
28627;SDS011;15815;46.760;19.604;2023-02-19T06:02:43;45.63;;;28.38;;
28627;SDS011;15815;46.760;19.604;2023-02-19T06:05:10;41.20;;;29.48;;
28627;SDS011;15815;46.760;19.604;2023-02-19T06:07:37;43.72;;;29.20;;
28627;SDS011;15815;46.760;19.604;2023-02-19T06:10:03;38.67;;;26.45;;
28627;SDS011;15815;46.760;19.604;2023-02-19T06:12:30;40.75;;;28.95;;
28627;SDS011;15815;46.760;19.604;2023-02-19T06:14:56;41.53;;;27.90;;
28627;SDS011;15815;46.760;19.604;2023-02-19T06:17:21;52.35;;;33.40;;
28627;SDS011;15815;46.760;19.604;2023-02-19T06:19:48;39.28;;;27.70;;
28627;SDS011;15815;46.760;19.604;2023-02-19T06:22:14;43.08;;;28.33;;
28627;SDS011;15815;46.760;19.604;2023-02-19T06:24:40;55.35;;;37.60;;
28627;SDS011;15815;46.760;19.604;2023-02-19T06:27:07;61.58;;;41.33;;
28627;SDS011;15815;46.760;19.604;2023-02-19T06:29:33;67.30;;;41.38;;
28627;SDS011;15815;46.760;19.604;2023-02-19T06:32:00;56.58;;;34.30;;
28627;SDS011;15815;46.760;19.604;2023-02-19T06:34:25;46.03;;;30.33;;
28627;SDS011;15815;46.760;19.604;2023-02-19T06:36:51;44.45;;;30.02;;
28627;SDS011;15815;46.760;19.604;2023-02-19T06:39:16;41.50;;;26.58;;
28627;SDS011;15815;46.760;19.604;2023-02-19T06:41:42;33.22;;;25.75;;
28627;SDS011;15815;46.760;19.604;2023-02-19T06:44:10;39.80;;;25.40;;
28627;SDS011;15815;46.760;19.604;2023-02-19T06:46:36;35.38;;;24.38;;
28627;SDS011;15815;46.760;19.604;2023-02-19T06:49:04;34.17;;;25.13;;
28627;SDS011;15815;46.760;19.604;2023-02-19T06:51:30;35.50;;;25.17;;
28627;SDS011;15815;46.760;19.604;2023-02-19T06:53:55;40.08;;;27.05;;
28627;SDS011;15815;46.760;19.604;2023-02-19T06:56:34;39.25;;;26.83;;
28627;SDS011;15815;46.760;19.604;2023-02-19T06:59:03;43.30;;;27.33;;
28627;SDS011;15815;46.760;19.604;2023-02-19T07:01:34;37.88;;;26.70;;
28627;SDS011;15815;46.760;19.604;2023-02-19T07:04:00;37.53;;;26.63;;
28627;SDS011;15815;46.760;19.604;2023-02-19T07:06:27;38.00;;;28.02;;
28627;SDS011;15815;46.760;19.604;2023-02-19T07:08:54;37.97;;;26.27;;
28627;SDS011;15815;46.760;19.604;2023-02-19T07:11:20;34.55;;;24.13;;
28627;SDS011;15815;46.760;19.604;2023-02-19T07:13:48;35.70;;;22.75;;
28627;SDS011;15815;46.760;19.604;2023-02-19T07:16:19;31.85;;;22.23;;
28627;SDS011;15815;46.760;19.604;2023-02-19T07:18:44;35.92;;;23.58;;
28627;SDS011;15815;46.760;19.604;2023-02-19T07:21:10;32.05;;;23.33;;
28627;SDS011;15815;46.760;19.604;2023-02-19T07:23:38;34.05;;;23.00;;
28627;SDS011;15815;46.760;19.604;2023-02-19T07:26:07;35.72;;;22.55;;
28627;SDS011;15815;46.760;19.604;2023-02-19T07:28:34;31.08;;;22.92;;
28627;SDS011;15815;46.760;19.604;2023-02-19T07:31:01;31.60;;;24.25;;
28627;SDS011;15815;46.760;19.604;2023-02-19T07:33:28;29.88;;;23.00;;
28627;SDS011;15815;46.760;19.604;2023-02-19T07:35:54;31.92;;;23.05;;
28627;SDS011;15815;46.760;19.604;2023-02-19T07:38:20;31.98;;;23.10;;
28627;SDS011;15815;46.760;19.604;2023-02-19T07:40:53;35.17;;;23.42;;
28627;SDS011;15815;46.760;19.604;2023-02-19T07:43:20;31.60;;;23.15;;
28627;SDS011;15815;46.760;19.604;2023-02-19T07:45:47;31.45;;;23.58;;
28627;SDS011;15815;46.760;19.604;2023-02-19T07:48:12;33.33;;;23.83;;
28627;SDS011;15815;46.760;19.604;2023-02-19T07:50:38;34.17;;;22.98;;
28627;SDS011;15815;46.760;19.604;2023-02-19T07:53:04;30.33;;;22.58;;
28627;SDS011;15815;46.760;19.604;2023-02-19T07:55:32;33.83;;;23.00;;
28627;SDS011;15815;46.760;19.604;2023-02-19T07:57:59;29.67;;;21.67;;
28627;SDS011;15815;46.760;19.604;2023-02-19T08:00:25;34.15;;;23.40;;
28627;SDS011;15815;46.760;19.604;2023-02-19T08:02:53;34.25;;;23.75;;
28627;SDS011;15815;46.760;19.604;2023-02-19T08:05:19;30.95;;;23.30;;
28627;SDS011;15815;46.760;19.604;2023-02-19T08:07:44;35.17;;;24.08;;
28627;SDS011;15815;46.760;19.604;2023-02-19T08:10:10;33.30;;;24.38;;
28627;SDS011;15815;46.760;19.604;2023-02-19T08:12:36;32.75;;;23.38;;
28627;SDS011;15815;46.760;19.604;2023-02-19T08:15:01;36.55;;;24.40;;
28627;SDS011;15815;46.760;19.604;2023-02-19T08:17:27;33.22;;;24.88;;
28627;SDS011;15815;46.760;19.604;2023-02-19T08:19:53;35.08;;;24.73;;
28627;SDS011;15815;46.760;19.604;2023-02-19T08:22:19;34.55;;;24.92;;
28627;SDS011;15815;46.760;19.604;2023-02-19T08:24:44;42.42;;;28.80;;
28627;SDS011;15815;46.760;19.604;2023-02-19T08:27:11;41.40;;;26.85;;
28627;SDS011;15815;46.760;19.604;2023-02-19T08:29:39;38.83;;;26.10;;
28627;SDS011;15815;46.760;19.604;2023-02-19T08:32:04;42.80;;;26.33;;
28627;SDS011;15815;46.760;19.604;2023-02-19T08:34:30;41.65;;;27.80;;
28627;SDS011;15815;46.760;19.604;2023-02-19T08:36:55;43.03;;;28.40;;
28627;SDS011;15815;46.760;19.604;2023-02-19T08:39:21;38.92;;;27.25;;
28627;SDS011;15815;46.760;19.604;2023-02-19T08:41:49;51.70;;;32.83;;
28627;SDS011;15815;46.760;19.604;2023-02-19T08:44:15;44.60;;;29.33;;
28627;SDS011;15815;46.760;19.604;2023-02-19T08:46:40;43.88;;;27.60;;
28627;SDS011;15815;46.760;19.604;2023-02-19T08:49:06;37.28;;;26.13;;
28627;SDS011;15815;46.760;19.604;2023-02-19T08:51:32;38.47;;;26.20;;
28627;SDS011;15815;46.760;19.604;2023-02-19T08:53:57;37.65;;;27.05;;
28627;SDS011;15815;46.760;19.604;2023-02-19T08:56:26;38.28;;;25.70;;
28627;SDS011;15815;46.760;19.604;2023-02-19T08:58:51;43.10;;;27.92;;
28627;SDS011;15815;46.760;19.604;2023-02-19T09:01:17;40.83;;;28.70;;
28627;SDS011;15815;46.760;19.604;2023-02-19T09:03:44;42.58;;;28.67;;
28627;SDS011;15815;46.760;19.604;2023-02-19T09:06:12;42.28;;;29.45;;
28627;SDS011;15815;46.760;19.604;2023-02-19T09:08:40;48.58;;;31.88;;
28627;SDS011;15815;46.760;19.604;2023-02-19T09:11:05;48.92;;;33.20;;
28627;SDS011;15815;46.760;19.604;2023-02-19T09:13:31;57.92;;;37.05;;
28627;SDS011;15815;46.760;19.604;2023-02-19T09:15:58;58.08;;;35.92;;
28627;SDS011;15815;46.760;19.604;2023-02-19T09:18:23;50.53;;;35.28;;
28627;SDS011;15815;46.760;19.604;2023-02-19T09:20:50;52.08;;;32.38;;
28627;SDS011;15815;46.760;19.604;2023-02-19T09:23:15;54.28;;;36.50;;
28627;SDS011;15815;46.760;19.604;2023-02-19T09:25:41;48.38;;;32.17;;
28627;SDS011;15815;46.760;19.604;2023-02-19T09:28:06;48.55;;;32.08;;
28627;SDS011;15815;46.760;19.604;2023-02-19T09:30:32;47.08;;;31.27;;
28627;SDS011;15815;46.760;19.604;2023-02-19T09:32:58;45.33;;;31.20;;
28627;SDS011;15815;46.760;19.604;2023-02-19T09:35:23;51.30;;;33.58;;
28627;SDS011;15815;46.760;19.604;2023-02-19T09:37:50;47.42;;;33.45;;
28627;SDS011;15815;46.760;19.604;2023-02-19T09:40:15;48.75;;;31.85;;
28627;SDS011;15815;46.760;19.604;2023-02-19T09:42:41;50.17;;;33.15;;
28627;SDS011;15815;46.760;19.604;2023-02-19T09:45:09;50.78;;;32.83;;
28627;SDS011;15815;46.760;19.604;2023-02-19T09:47:41;46.65;;;32.58;;
28627;SDS011;15815;46.760;19.604;2023-02-19T09:50:08;42.65;;;31.02;;
28627;SDS011;15815;46.760;19.604;2023-02-19T09:53:00;45.42;;;32.22;;
28627;SDS011;15815;46.760;19.604;2023-02-19T09:55:31;46.13;;;31.90;;
28627;SDS011;15815;46.760;19.604;2023-02-19T09:57:59;45.65;;;31.30;;
28627;SDS011;15815;46.760;19.604;2023-02-19T10:00:30;44.17;;;32.25;;
28627;SDS011;15815;46.760;19.604;2023-02-19T10:05:35;43.65;;;30.83;;
28627;SDS011;15815;46.760;19.604;2023-02-19T10:08:03;46.83;;;32.67;;
28627;SDS011;15815;46.760;19.604;2023-02-19T10:10:33;48.25;;;32.67;;
28627;SDS011;15815;46.760;19.604;2023-02-19T10:13:08;43.33;;;29.52;;
28627;SDS011;15815;46.760;19.604;2023-02-19T10:15:59;46.63;;;30.70;;
28627;SDS011;15815;46.760;19.604;2023-02-19T10:18:28;49.55;;;32.35;;
28627;SDS011;15815;46.760;19.604;2023-02-19T10:21:04;42.28;;;29.00;;
28627;SDS011;15815;46.760;19.604;2023-02-19T10:23:30;47.28;;;31.25;;
28627;SDS011;15815;46.760;19.604;2023-02-19T10:25:57;43.92;;;30.33;;
28627;SDS011;15815;46.760;19.604;2023-02-19T10:28:25;41.75;;;29.98;;
28627;SDS011;15815;46.760;19.604;2023-02-19T10:30:55;43.30;;;30.73;;
28627;SDS011;15815;46.760;19.604;2023-02-19T10:33:22;43.47;;;29.23;;
28627;SDS011;15815;46.760;19.604;2023-02-19T10:36:04;50.20;;;32.55;;
28627;SDS011;15815;46.760;19.604;2023-02-19T10:41:21;54.67;;;38.88;;
28627;SDS011;15815;46.760;19.604;2023-02-19T10:43:52;51.47;;;36.15;;
28627;SDS011;15815;46.760;19.604;2023-02-19T10:46:29;53.70;;;36.35;;
28627;SDS011;15815;46.760;19.604;2023-02-19T10:48:58;47.97;;;35.22;;
28627;SDS011;15815;46.760;19.604;2023-02-19T10:51:40;49.30;;;32.78;;
28627;SDS011;15815;46.760;19.604;2023-02-19T10:54:14;48.33;;;33.83;;
28627;SDS011;15815;46.760;19.604;2023-02-19T10:56:43;52.20;;;33.55;;
28627;SDS011;15815;46.760;19.604;2023-02-19T10:59:27;48.58;;;32.83;;
28627;SDS011;15815;46.760;19.604;2023-02-19T11:01:57;45.38;;;32.53;;
28627;SDS011;15815;46.760;19.604;2023-02-19T11:07:28;53.92;;;35.50;;
28627;SDS011;15815;46.760;19.604;2023-02-19T11:09:54;54.53;;;36.60;;
28627;SDS011;15815;46.760;19.604;2023-02-19T11:12:28;46.97;;;32.65;;
28627;SDS011;15815;46.760;19.604;2023-02-19T11:14:55;50.53;;;34.33;;
28627;SDS011;15815;46.760;19.604;2023-02-19T11:17:24;47.38;;;33.40;;
28627;SDS011;15815;46.760;19.604;2023-02-19T11:19:55;48.80;;;33.17;;
28627;SDS011;15815;46.760;19.604;2023-02-19T11:22:37;46.60;;;32.80;;
28627;SDS011;15815;46.760;19.604;2023-02-19T11:27:31;51.38;;;33.25;;
28627;SDS011;15815;46.760;19.604;2023-02-19T11:33:20;46.85;;;32.58;;
28627;SDS011;15815;46.760;19.604;2023-02-19T11:35:54;46.50;;;32.50;;
28627;SDS011;15815;46.760;19.604;2023-02-19T11:38:42;51.60;;;34.92;;
28627;SDS011;15815;46.760;19.604;2023-02-19T11:44:15;47.35;;;31.35;;
28627;SDS011;15815;46.760;19.604;2023-02-19T11:58:35;40.47;;;30.15;;
28627;SDS011;15815;46.760;19.604;2023-02-19T12:01:14;46.63;;;31.83;;
28627;SDS011;15815;46.760;19.604;2023-02-19T12:04:51;49.10;;;33.35;;
28627;SDS011;15815;46.760;19.604;2023-02-19T12:07:07;46.00;;;32.42;;
28627;SDS011;15815;46.760;19.604;2023-02-19T12:12:23;47.53;;;29.58;;
28627;SDS011;15815;46.760;19.604;2023-02-19T12:38:44;43.22;;;26.38;;
28627;SDS011;15815;46.760;19.604;2023-02-19T12:41:25;38.85;;;27.00;;
28627;SDS011;15815;46.760;19.604;2023-02-19T12:44:20;37.88;;;26.27;;
28627;SDS011;15815;46.760;19.604;2023-02-19T12:46:58;40.95;;;27.52;;
28627;SDS011;15815;46.760;19.604;2023-02-19T12:54:49;38.00;;;26.00;;
28627;SDS011;15815;46.760;19.604;2023-02-19T12:57:22;36.58;;;24.60;;
28627;SDS011;15815;46.760;19.604;2023-02-19T13:00:09;35.67;;;25.10;;
28627;SDS011;15815;46.760;19.604;2023-02-19T13:12:17;44.33;;;27.10;;
28627;SDS011;15815;46.760;19.604;2023-02-19T13:17:42;35.40;;;24.63;;
28627;SDS011;15815;46.760;19.604;2023-02-19T13:25:40;31.33;;;22.70;;
28627;SDS011;15815;46.760;19.604;2023-02-19T13:28:17;32.47;;;23.15;;
28627;SDS011;15815;46.760;19.604;2023-02-19T13:36:35;34.92;;;23.15;;
28627;SDS011;15815;46.760;19.604;2023-02-19T13:39:06;36.05;;;24.80;;
28627;SDS011;15815;46.760;19.604;2023-02-19T13:41:39;34.20;;;23.70;;
28627;SDS011;15815;46.760;19.604;2023-02-19T13:44:19;36.00;;;23.02;;
28627;SDS011;15815;46.760;19.604;2023-02-19T13:46:49;28.50;;;21.13;;
28627;SDS011;15815;46.760;19.604;2023-02-19T13:49:23;29.30;;;20.25;;
28627;SDS011;15815;46.760;19.604;2023-02-19T13:54:33;27.85;;;20.98;;
28627;SDS011;15815;46.760;19.604;2023-02-19T13:59:52;28.27;;;20.15;;
28627;SDS011;15815;46.760;19.604;2023-02-19T14:14:37;25.65;;;19.30;;
28627;SDS011;15815;46.760;19.604;2023-02-19T14:24:51;15.50;;;10.90;;
28627;SDS011;15815;46.760;19.604;2023-02-19T14:27:18;20.80;;;8.63;;
28627;SDS011;15815;46.760;19.604;2023-02-19T14:29:45;10.27;;;6.30;;
28627;SDS011;15815;46.760;19.604;2023-02-19T14:32:13;21.02;;;7.43;;
28627;SDS011;15815;46.760;19.604;2023-02-19T14:34:44;15.73;;;7.40;;
28627;SDS011;15815;46.760;19.604;2023-02-19T14:37:18;12.43;;;6.97;;
28627;SDS011;15815;46.760;19.604;2023-02-19T14:39:46;21.92;;;7.53;;
28627;SDS011;15815;46.760;19.604;2023-02-19T14:42:15;14.55;;;6.80;;
28627;SDS011;15815;46.760;19.604;2023-02-19T14:47:24;13.82;;;7.03;;
28627;SDS011;15815;46.760;19.604;2023-02-19T14:52:29;9.88;;;5.97;;
28627;SDS011;15815;46.760;19.604;2023-02-19T14:55:07;9.40;;;6.13;;
28627;SDS011;15815;46.760;19.604;2023-02-19T14:57:55;10.65;;;5.55;;
28627;SDS011;15815;46.760;19.604;2023-02-19T15:00:28;12.73;;;5.70;;
28627;SDS011;15815;46.760;19.604;2023-02-19T15:03:05;13.43;;;3.92;;
28627;SDS011;15815;46.760;19.604;2023-02-19T15:05:52;13.23;;;3.83;;
28627;SDS011;15815;46.760;19.604;2023-02-19T15:08:24;11.45;;;5.45;;
28627;SDS011;15815;46.760;19.604;2023-02-19T15:10:55;12.75;;;5.07;;
28627;SDS011;15815;46.760;19.604;2023-02-19T15:13:26;7.95;;;3.58;;
28627;SDS011;15815;46.760;19.604;2023-02-19T15:15:54;8.82;;;3.25;;
28627;SDS011;15815;46.760;19.604;2023-02-19T15:18:22;5.78;;;3.25;;
28627;SDS011;15815;46.760;19.604;2023-02-19T15:23:26;8.80;;;2.65;;
28627;SDS011;15815;46.760;19.604;2023-02-19T15:25:54;64.78;;;3.67;;
28627;SDS011;15815;46.760;19.604;2023-02-19T15:30:52;12.57;;;0.80;;
28627;SDS011;15815;46.760;19.604;2023-02-19T15:33:32;10.23;;;0.85;;
28627;SDS011;15815;46.760;19.604;2023-02-19T15:35:59;13.73;;;0.88;;
28627;SDS011;15815;46.760;19.604;2023-02-19T15:38:28;7.10;;;1.73;;
28627;SDS011;15815;46.760;19.604;2023-02-19T15:40:57;8.10;;;3.85;;
28627;SDS011;15815;46.760;19.604;2023-02-19T15:43:24;3.72;;;1.67;;
28627;SDS011;15815;46.760;19.604;2023-02-19T15:45:56;1.92;;;1.13;;
28627;SDS011;15815;46.760;19.604;2023-02-19T15:48:29;0.75;;;0.60;;
28627;SDS011;15815;46.760;19.604;2023-02-19T15:51:05;0.98;;;0.60;;
28627;SDS011;15815;46.760;19.604;2023-02-19T15:53:36;1.95;;;0.70;;
28627;SDS011;15815;46.760;19.604;2023-02-19T16:01:18;3.60;;;2.60;;
28627;SDS011;15815;46.760;19.604;2023-02-19T16:03:53;4.32;;;3.60;;
28627;SDS011;15815;46.760;19.604;2023-02-19T16:06:19;3.45;;;2.10;;
28627;SDS011;15815;46.760;19.604;2023-02-19T16:13:49;2.28;;;1.48;;
28627;SDS011;15815;46.760;19.604;2023-02-19T16:16:26;4.47;;;2.40;;
28627;SDS011;15815;46.760;19.604;2023-02-19T16:18:56;2.95;;;1.83;;
28627;SDS011;15815;46.760;19.604;2023-02-19T16:21:23;4.30;;;2.05;;
28627;SDS011;15815;46.760;19.604;2023-02-19T16:23:55;2.63;;;1.60;;
28627;SDS011;15815;46.760;19.604;2023-02-19T16:26:29;4.53;;;3.10;;
28627;SDS011;15815;46.760;19.604;2023-02-19T16:29:10;3.92;;;1.90;;
28627;SDS011;15815;46.760;19.604;2023-02-19T16:31:46;5.65;;;2.25;;
28627;SDS011;15815;46.760;19.604;2023-02-19T16:37:39;3.85;;;1.58;;
28627;SDS011;15815;46.760;19.604;2023-02-19T16:45:17;6.45;;;3.05;;
28627;SDS011;15815;46.760;19.604;2023-02-19T16:47:44;6.00;;;4.03;;
28627;SDS011;15815;46.760;19.604;2023-02-19T16:50:12;4.43;;;2.53;;
28627;SDS011;15815;46.760;19.604;2023-02-19T16:52:56;7.38;;;2.53;;
28627;SDS011;15815;46.760;19.604;2023-02-19T16:55:24;5.00;;;3.67;;
28627;SDS011;15815;46.760;19.604;2023-02-19T16:57:50;5.05;;;3.95;;
28627;SDS011;15815;46.760;19.604;2023-02-19T17:02:47;6.53;;;2.58;;
28627;SDS011;15815;46.760;19.604;2023-02-19T17:05:15;4.25;;;3.22;;
28627;SDS011;15815;46.760;19.604;2023-02-19T17:07:45;7.38;;;3.50;;
28627;SDS011;15815;46.760;19.604;2023-02-19T17:10:13;4.20;;;3.00;;
28627;SDS011;15815;46.760;19.604;2023-02-19T17:12:41;6.85;;;2.42;;
28627;SDS011;15815;46.760;19.604;2023-02-19T17:15:07;6.05;;;3.33;;
28627;SDS011;15815;46.760;19.604;2023-02-19T17:17:33;7.03;;;3.10;;
28627;SDS011;15815;46.760;19.604;2023-02-19T17:20:09;3.60;;;2.42;;
28627;SDS011;15815;46.760;19.604;2023-02-19T17:22:40;2.58;;;2.03;;
28627;SDS011;15815;46.760;19.604;2023-02-19T17:25:06;3.50;;;1.75;;
28627;SDS011;15815;46.760;19.604;2023-02-19T17:27:33;2.53;;;1.83;;
28627;SDS011;15815;46.760;19.604;2023-02-19T17:29:59;4.88;;;2.30;;
28627;SDS011;15815;46.760;19.604;2023-02-19T17:32:25;4.72;;;1.55;;